M I D A S
Marine Information and Data Acquisition System
Tripno 873 of the Zeeleeuw from 2005-03-30 06:33:14 to 2005-03-30 12:54:34
Back to CruiseResearch ActivitiesStationsMapUnderway DataData graphs

EquipmentUnitsComment
TimeDGPSUTC
LatitudeDGPSDM.mWGS84
LongitudeDGPSDM.mWGS84
TemperatureSBE03/SBE38deg celciusITS90
ConductivitySBE21S/mITS90
SalinitySBE21 Practical Salinity Units
ChlorophylAChelsea fluorimeterg/lCalibrated in Aceton
Missing or incorrect values are displayed as -999
Sea surface data collected by the RV Zeeleeuw from 2005-03-30 06:33:59 to 2005-03-30 13:01:34
Time Latitude Longitude Temperature Conductivity Salinity ChlorophylA
2005-03-30 06:35:05 51°13.615 2°56.029 15.9435 0.539199 3.702584 -0.646411
2005-03-30 06:36:05 51°13.653 2°55.918 8.8263 3.632952 25.280155 5.657247
2005-03-30 06:37:05 51°13.694 2°55.805 7.9945 2.895495 26.70719 6.162888
2005-03-30 06:38:05 51°13.709 2°55.762 7.9182 2.881924 26.967639 5.623537
2005-03-30 06:39:05 51°13.707 2°55.739 8.046 2.723559 25.313795 4.88193
2005-03-30 06:40:04 51°13.768 2°55.69 8.1517 2.705463 25.090159 4.88193
2005-03-30 06:41:05 51°13.876 2°55.595 8.1672 2.677689 24.751959 4.88193
2005-03-30 06:42:05 51°14.004 2°55.504 7.8505 2.762067 25.712833 5.4887
2005-03-30 06:43:05 51°14.137 2°55.406 7.756 2.856142 26.86072 7.443845
2005-03-30 06:44:04 51°14.275 2°55.24 7.7403 2.860037 26.968137 7.814648
2005-03-30 06:45:04 51°14.388 2°54.992 7.6995 2.887925 27.239225 6.702238
2005-03-30 06:46:05 51°14.562 2°54.796 7.5305 2.980442 28.243364 7.275298
2005-03-30 06:47:05 51°14.763 2°54.633 7.5175 3.112247 29.790116 8.118033
2005-03-30 06:48:04 51°14.966 2°54.468 7.5028 3.180687 30.531843 8.185452
2005-03-30 06:49:05 51°15.168 2°54.297 7.5186 3.197009 30.72089 8.252871
2005-03-30 06:50:05 51°15.374 2°54.129 7.5471 3.215437 30.889339 7.915777
2005-03-30 06:51:04 51°15.577 2°53.955 7.5031 3.214068 30.865083 6.668529
2005-03-30 06:52:05 51°15.782 2°53.781 7.4419 3.212489 30.91327 5.117896
2005-03-30 06:53:05 51°15.983 2°53.611 7.4178 3.215964 30.977301 5.657247
2005-03-30 06:54:04 51°16.184 2°53.443 7.3774 3.207119 30.921208 6.331435
2005-03-30 06:55:05 51°16.391 2°53.273 7.3194 3.205329 30.943409 6.702238
2005-03-30 06:56:04 51°16.595 2°53.105 7.2686 3.201644 30.951422 7.612392
2005-03-30 06:57:05 51°16.803 2°52.937 7.2784 3.202382 30.987228 7.207879
2005-03-30 06:58:05 51°17.006 2°52.77 7.2903 3.213333 31.096237 5.758375
2005-03-30 06:59:04 51°17.214 2°52.613 7.2805 3.232183 31.286101 6.499982
2005-03-30 07:00:05 51°17.438 2°52.517 7.2589 3.238396 31.375644 6.735947
2005-03-30 07:01:05 51°17.665 2°52.469 7.2117 3.237449 31.396088 6.02805
2005-03-30 07:02:04 51°17.889 2°52.413 7.1389 3.238081 31.425115 5.724665
2005-03-30 07:03:05 51°18.116 2°52.407 7.082 3.22534 31.364025 6.365144
2005-03-30 07:04:05 51°18.34 2°52.447 7.0695 3.212177 31.265952 6.769657
2005-03-30 07:05:05 51°18.555 2°52.523 7.0852 3.205754 31.205149 6.769657
2005-03-30 07:06:04 51°18.664 2°52.805 7.04 3.190274 31.043712 6.870785
2005-03-30 07:07:04 51°18.737 2°53.125 7.0356 3.183114 30.997777 7.578683
2005-03-30 07:08:05 51°18.794 2°53.457 7.0114 3.172269 30.889247 6.769657
2005-03-30 07:09:04 51°18.862 2°53.777 6.9865 3.159739 30.777695 7.039332
2005-03-30 07:10:04 51°18.938 2°54.097 7.0073 3.150789 30.677478 6.230306
2005-03-30 07:11:04 51°19.014 2°54.417 7.0111 3.147946 30.63556 6.264016
2005-03-30 07:12:05 51°19.088 2°54.74 7.0196 3.140154 30.551683 6.196597
2005-03-30 07:13:04 51°19.16 2°55.057 7.0318 3.135521 30.498078 5.825794
2005-03-30 07:14:05 51°19.231 2°55.379 7.0361 3.127098 30.389551 4.949349
2005-03-30 07:15:04 51°19.302 2°55.695 7.0507 3.121517 30.331067 5.050477
2005-03-30 07:16:05 51°19.375 2°56.018 7.0597 3.118885 30.290884 5.286443
2005-03-30 07:17:04 51°19.445 2°56.337 7.0662 3.117937 30.276991 4.88193
2005-03-30 07:18:04 51°19.518 2°56.657 7.071 3.119622 30.286165 4.34258
2005-03-30 07:19:04 51°19.59 2°56.976 7.0791 3.126255 30.35814 4.544836
2005-03-30 07:20:05 51°19.667 2°57.294 7.081 3.130888 30.397463 4.612255
2005-03-30 07:21:05 51°19.747 2°57.612 7.1228 3.149629 30.586069 5.050477
2005-03-30 07:22:05 51°19.826 2°57.931 7.1245 3.161212 30.687224 5.421281
2005-03-30 07:23:04 51°19.907 2°58.245 7.1154 3.154157 30.613707 5.522409
2005-03-30 07:24:04 51°20.001 2°58.553 7.1129 3.139521 30.461069 5.421281
2005-03-30 07:25:04 51°20.088 2°58.865 7.0821 3.128992 30.354782 5.117896
2005-03-30 07:26:04 51°20.175 2°59.175 7.0515 3.099934 30.076349 4.747093
2005-03-30 07:27:04 51°20.263 2°59.482 7.0307 3.075719 29.835764 4.612255
2005-03-30 07:28:05 51°20.349 2°59.79 6.9961 3.050663 29.589786 4.612255
2005-03-30 07:29:04 51°20.432 3°0.096 6.9536 3.041294 29.513315 4.88193
2005-03-30 07:30:05 51°20.513 3°0.405 6.9057 3.027083 29.403645 5.320153
2005-03-30 07:31:05 51°20.592 3°0.709 6.8737 3.013293 29.293954 5.117896
2005-03-30 07:32:04 51°20.667 3°1.012 6.8701 2.997924 29.145525 5.151606
2005-03-30 07:33:05 51°20.741 3°1.32 6.8596 2.996556 29.1409 5.084187
2005-03-30 07:34:04 51°20.813 3°1.622 6.8727 2.99624 29.13679 4.983059
2005-03-30 07:35:05 51°20.89 3°1.929 6.8669 2.996135 29.133503 4.544836
2005-03-30 07:36:04 51°20.965 3°2.232 6.8703 2.992661 29.097644 4.409999
2005-03-30 07:37:05 51°21.041 3°2.54 6.8641 2.992661 29.09908 4.848221
2005-03-30 07:38:05 51°21.115 3°2.843 6.8687 2.993609 29.109252 4.645965
2005-03-30 07:39:05 51°21.189 3°3.149 6.8716 2.99424 29.112441 4.645965
2005-03-30 07:40:04 51°21.257 3°3.453 6.8714 2.990977 29.07454 4.409999
2005-03-30 07:41:04 51°21.321 3°3.761 6.8663 2.991082 29.077823 4.207742
2005-03-30 07:42:05 51°21.386 3°4.072 6.8651 2.990977 29.078845 4.308871
2005-03-30 07:43:04 51°21.449 3°4.378 6.8666 2.995082 29.127951 4.679674
2005-03-30 07:44:05 51°21.514 3°4.687 6.8707 2.992556 29.095078 4.578546
2005-03-30 07:45:05 51°21.578 3°4.993 6.8882 2.992345 29.086358 4.275161
2005-03-30 07:46:05 51°21.641 3°5.299 6.8852 2.990872 29.059788 3.80323
2005-03-30 07:47:05 51°21.703 3°5.602 6.8802 2.98845 29.035964 3.904358
2005-03-30 07:48:05 51°21.764 3°5.902 6.8819 2.994766 29.105881 3.870648
2005-03-30 07:49:04 51°21.825 3°6.199 6.8861 2.991819 29.082144 3.735811
2005-03-30 07:50:05 51°21.88 3°6.503 6.9162 2.988871 29.032605 3.533554
2005-03-30 07:51:04 51°21.919 3°6.804 6.8912 2.986976 28.989413 3.870648
2005-03-30 07:52:05 51°21.958 3°7.103 6.8529 2.988977 29.052358 4.679674
2005-03-30 07:53:04 51°21.972 3°7.398 6.8385 2.987293 29.068713 4.275161
2005-03-30 07:54:05 51°21.987 3°7.697 6.8445 2.985188 29.041073 3.904358
2005-03-30 07:55:05 51°21.999 3°7.995 6.8643 2.988977 29.068855 3.76952
2005-03-30 07:56:05 51°22.014 3°8.294 6.8673 2.98824 29.055921 3.938067
2005-03-30 07:57:04 51°22.031 3°8.593 6.8513 2.985188 29.018854 3.870648
2005-03-30 07:58:05 51°22.048 3°8.896 6.8559 2.989398 29.078402 3.80323
2005-03-30 07:59:04 51°22.065 3°9.196 6.8372 2.988661 29.074078 3.600973
2005-03-30 08:00:05 51°22.083 3°9.502 6.8375 2.992767 29.126809 3.836939
2005-03-30 08:01:05 51°22.111 3°9.802 6.8531 2.985925 29.050423 3.499845
2005-03-30 08:02:04 51°22.146 3°10.096 6.8497 2.993293 29.113047 3.297589
2005-03-30 08:03:05 51°22.181 3°10.373 6.8247 2.987504 29.060206 3.702101
2005-03-30 08:04:04 51°22.208 3°10.585 6.8085 2.98982 29.11168 4.713383
2005-03-30 08:05:05 51°22.247 3°10.853 6.8135 2.988557 29.104576 4.780802
2005-03-30 08:06:05 51°22.291 3°11.151 6.7928 2.992767 29.151297 4.308871
2005-03-30 08:07:05 51°22.336 3°11.445 6.78 2.99603 29.200116 4.34258
2005-03-30 08:08:05 51°22.382 3°11.74 6.77 2.99782 29.22733 4.207742
2005-03-30 08:09:04 51°22.428 3°12.032 6.7576 2.997925 29.238594 4.645965
2005-03-30 08:10:05 51°22.475 3°12.33 6.7532 3.002347 29.298547 4.376289
2005-03-30 08:11:04 51°22.544 3°12.612 6.7552 3.004873 29.33086 4.34258
2005-03-30 08:12:05 51°22.659 3°12.862 6.7537 3.001084 29.288561 4.409999
2005-03-30 08:13:04 51°22.828 3°13.03 6.7657 3.002978 29.303176 4.072905
2005-03-30 08:14:05 51°23.039 3°13.034 6.7832 2.996452 29.226341 4.814512
2005-03-30 08:15:05 51°23.258 3°12.952 6.7452 2.991504 29.165118 5.623537
2005-03-30 08:16:05 51°23.47 3°12.966 6.7429 3.001715 29.281586 5.960631
2005-03-30 08:17:05 51°23.669 3°13.069 6.7362 3.002347 29.307984 6.230306
2005-03-30 08:18:05 51°23.868 3°13.177 6.7561 2.997715 29.260959 6.432563
2005-03-30 08:19:05 51°24.067 3°13.284 6.7439 2.997505 29.249267 6.297725
2005-03-30 08:20:05 51°24.269 3°13.387 6.7338 2.995399 29.228031 5.825794
2005-03-30 08:21:04 51°24.472 3°13.479 6.6937 3.001084 29.307439 5.623537
2005-03-30 08:22:05 51°24.694 3°13.411 6.717 3.010663 29.43047 5.623537
2005-03-30 08:23:05 51°24.904 3°13.206 6.7271 3.002979 29.327147 5.016768
2005-03-30 08:24:05 51°25.057 3°12.878 6.7032 3.006452 29.37044 4.409999
2005-03-30 08:25:05 51°25.14 3°12.482 6.6775 3.008979 29.414475 4.679674
2005-03-30 08:26:05 51°25.182 3°12.077 6.6371 3.019612 29.56965 5.050477
2005-03-30 08:27:05 51°25.165 3°11.669 6.6088 3.033718 29.737807 5.724665
2005-03-30 08:28:05 51°25.121 3°11.271 6.612 3.039403 29.820884 6.904494
2005-03-30 08:29:04 51°25.068 3°10.882 6.6139 3.038455 29.812097 5.556118
2005-03-30 08:30:05 51°25.021 3°10.49 6.5846 3.040982 29.836518 5.589828
2005-03-30 08:31:05 51°24.957 3°10.118 6.5577 3.04572 29.922879 6.095469
2005-03-30 08:32:05 51°24.893 3°9.745 6.5533 3.050668 29.978095 6.297725
2005-03-30 08:33:05 51°24.835 3°9.373 6.5651 3.051089 29.989393 6.365144
2005-03-30 08:34:05 51°24.79 3°8.991 6.5696 3.048668 29.963841 6.264016
2005-03-30 08:35:05 51°24.788 3°8.603 6.5711 3.04772 29.934154 5.792084
2005-03-30 08:36:05 51°24.765 3°8.215 6.5893 3.042983 29.890188 5.252734
2005-03-30 08:37:05 51°24.761 3°7.822 6.6261 3.039508 29.830934 4.747093
2005-03-30 08:38:05 51°24.837 3°7.457 6.6176 3.038771 29.792538 4.544836
2005-03-30 08:39:05 51°25.019 3°7.233 6.6416 3.036245 29.765911 4.376289
2005-03-30 08:40:05 51°25.236 3°7.185 6.6274 3.035508 29.756449 4.174033
2005-03-30 08:41:05 51°25.455 3°7.122 6.6434 3.036771 29.775314 4.241452
2005-03-30 08:42:05 51°25.674 3°7.166 6.579 3.04393 29.872936 4.477418
2005-03-30 08:43:05 51°25.894 3°7.196 6.5603 3.046246 29.920394 4.409999
2005-03-30 08:44:05 51°26.112 3°7.22 6.5552 3.04772 29.950565 4.308871
2005-03-30 08:45:05 51°26.333 3°7.243 6.547 3.049405 29.977823 4.308871
2005-03-30 08:46:05 51°26.556 3°7.276 6.5362 3.051089 30.002106 4.207742
2005-03-30 08:47:05 51°26.781 3°7.302 6.5275 3.052142 30.020283 4.174033
2005-03-30 08:48:05 51°27.006 3°7.327 6.5197 3.053616 30.044547 4.275161
2005-03-30 08:49:05 51°27.232 3°7.353 6.5149 3.054774 30.060889 4.241452
2005-03-30 08:50:05 51°27.458 3°7.38 6.5073 3.056143 30.084782 4.072905
2005-03-30 08:51:04 51°27.684 3°7.405 6.5018 3.057511 30.10869 3.904358
2005-03-30 08:52:05 51°27.915 3°7.426 6.4951 3.060564 30.144178 3.836939
2005-03-30 08:53:04 51°28.142 3°7.383 6.4996 3.063933 30.1801 3.735811
2005-03-30 08:54:04 51°28.371 3°7.33 6.4926 3.068881 30.240018 3.668392
2005-03-30 08:55:05 51°28.602 3°7.265 6.4878 3.073514 30.295775 3.466136
2005-03-30 08:56:05 51°28.818 3°7.14 6.4611 3.080883 30.377608 3.432426
2005-03-30 08:57:05 51°29.028 3°6.984 6.4314 3.092886 30.542818 3.365007
2005-03-30 08:58:04 51°29.232 3°6.812 6.4153 3.092149 30.55694 3.702101
2005-03-30 08:59:05 51°29.437 3°6.629 6.4248 3.091728 30.556928 3.668392
2005-03-30 09:00:05 51°29.64 3°6.445 6.4656 3.091938 30.546227 3.600973
2005-03-30 09:01:05 51°29.844 3°6.264 6.4456 3.097097 30.578099 3.499845
2005-03-30 09:02:05 51°30.047 3°6.084 6.4085 3.09457 30.578042 3.600973
2005-03-30 09:03:05 51°30.25 3°5.903 6.4109 3.085832 30.503963 3.499845
2005-03-30 09:04:05 51°30.45 3°5.721 6.4143 3.09436 30.591056 3.567264
2005-03-30 09:05:05 51°30.651 3°5.538 6.4536 3.095202 30.588772 3.904358
2005-03-30 09:06:05 51°30.851 3°5.357 6.4698 3.094886 30.563133 4.039195
2005-03-30 09:07:05 51°31.05 3°5.176 6.4555 3.103098 30.644393 3.836939
2005-03-30 09:08:04 51°31.247 3°4.995 6.4839 3.10573 30.670072 3.870648
2005-03-30 09:09:04 51°31.446 3°4.814 6.3909 3.111837 30.742154 3.904358
2005-03-30 09:10:05 51°31.647 3°4.631 6.3344 3.110258 30.794221 3.735811
2005-03-30 09:11:05 51°31.848 3°4.451 6.3608 3.111206 30.848687 4.039195
2005-03-30 09:12:04 51°32.002 3°4.176 6.4148 3.110153 30.778407 3.331298
2005-03-30 09:13:05 51°32.137 3°3.863 6.3871 3.111416 30.781437 3.432426
2005-03-30 09:14:05 51°32.256 3°3.537 6.285 3.113944 30.84231 3.80323
2005-03-30 09:15:05 51°32.376 3°3.212 6.2517 3.112471 30.916115 4.578546
2005-03-30 09:16:04 51°32.495 3°2.886 6.2035 3.121631 31.041767 4.34258
2005-03-30 09:17:04 51°32.618 3°2.558 6.1633 3.121631 31.076201 3.904358
2005-03-30 09:18:05 51°32.724 3°2.219 6.1739 3.126054 31.17049 3.938067
2005-03-30 09:19:05 51°32.731 3°1.836 6.2109 3.129212 31.1652 2.825657
2005-03-30 09:20:04 51°32.668 3°1.468 6.1885 3.134898 31.226281 2.454853
2005-03-30 09:21:05 51°32.594 3°1.097 6.2002 3.136056 31.241409 2.589691
2005-03-30 09:22:05 51°32.51 3°0.735 6.1997 3.132897 31.205022 2.859366
2005-03-30 09:23:05 51°32.427 3°0.375 6.2029 3.131634 31.194245 2.926785
2005-03-30 09:24:05 51°32.336 3°0.017 6.1891 3.135108 31.24436 3.095332
2005-03-30 09:25:05 51°32.239 2°59.666 6.1975 3.138372 31.275619 2.859366
2005-03-30 09:26:05 51°32.142 2°59.312 6.1917 3.139741 31.281243 2.825657
2005-03-30 09:27:05 51°32.046 2°58.958 6.1803 3.142374 31.326064 2.859366
2005-03-30 09:28:04 51°31.951 2°58.605 6.1779 3.143742 31.341163 2.6234
2005-03-30 09:29:05 51°31.855 2°58.246 6.151 3.145533 31.386255 2.825657
2005-03-30 09:30:04 51°31.762 2°57.89 6.1613 3.145006 31.380442 2.893076
2005-03-30 09:31:05 51°31.666 2°57.528 6.1976 3.147744 31.390851 2.488563
2005-03-30 09:32:05 51°31.565 2°57.167 6.1911 3.159536 31.482891 1.612118
2005-03-30 09:33:05 51°31.465 2°56.804 6.2131 3.170908 31.637049 1.342443
2005-03-30 09:34:05 51°31.362 2°56.44 6.1849 3.173014 31.651524 0.836802
2005-03-30 09:35:05 51°31.272 2°56.073 6.1379 3.167013 31.614765 1.207606
2005-03-30 09:36:05 51°31.258 2°55.687 6.1112 3.168592 31.668203 1.645828
2005-03-30 09:37:04 51°31.35 2°55.349 6.0956 3.169014 31.698508 1.949212
2005-03-30 09:38:05 51°31.514 2°55.093 6.0781 3.167329 31.691883 1.780665
2005-03-30 09:39:04 51°31.693 2°55.11 6.0752 3.164486 31.653186 1.881794
2005-03-30 09:40:05 51°31.815 2°55.376 6.0681 3.173226 31.770071 1.51099
2005-03-30 09:41:05 51°31.933 2°55.649 6.069 3.172068 31.767693 1.780665
2005-03-30 09:42:05 51°32.055 2°55.92 6.0746 3.166698 31.703345 1.814375
2005-03-30 09:43:05 51°32.183 2°56.184 6.0794 3.173437 31.767578 1.780665
2005-03-30 09:44:05 51°32.312 2°56.444 6.0897 3.174068 31.775384 1.5447
2005-03-30 09:45:04 51°32.439 2°56.705 6.0739 3.173121 31.752017 1.443571
2005-03-30 09:46:05 51°32.568 2°56.971 6.0851 3.168277 31.703182 1.443571
2005-03-30 09:47:05 51°32.697 2°57.237 6.1039 3.177227 31.799927 1.443571
2005-03-30 09:48:05 51°32.826 2°57.5 6.0916 3.17312 31.731938 1.140187
2005-03-30 09:49:05 51°32.953 2°57.766 6.1175 3.169646 31.688665 1.173896
2005-03-30 09:50:05 51°33.08 2°58.029 6.1201 3.178385 31.77255 0.803093
2005-03-30 09:51:04 51°33.205 2°58.292 6.1089 3.181544 31.831654 1.039059
2005-03-30 09:52:05 51°33.333 2°58.558 6.0777 3.175753 31.774746 0.904221
2005-03-30 09:53:05 51°33.465 2°58.817 6.0782 3.180913 31.848023 1.207606
2005-03-30 09:54:05 51°33.598 2°59.077 6.0903 3.175016 31.77784 1.106477
2005-03-30 09:55:05 51°33.73 2°59.338 6.084 3.180807 31.836376 1.039059
2005-03-30 09:56:05 51°33.861 2°59.6 6.0972 3.185546 31.889697 0.97164
2005-03-30 09:57:05 51°33.991 2°59.861 6.097 3.177859 31.79566 0.803093
2005-03-30 09:58:05 51°34.12 3°0.122 6.0794 3.184914 31.875433 1.072768
2005-03-30 09:59:05 51°34.247 3°0.377 6.0802 3.182808 31.869034 1.308734
2005-03-30 10:00:04 51°34.373 3°0.633 6.081 3.177333 31.804314 1.376153
2005-03-30 10:01:04 51°34.5 3°0.89 6.0831 3.174174 31.772528 1.342443
2005-03-30 10:02:05 51°34.656 3°1.066 6.0937 3.17628 31.793451 1.409862
2005-03-30 10:03:05 51°34.831 3°0.886 6.1267 3.177332 31.778571 1.039059
2005-03-30 10:04:05 51°34.996 3°0.647 6.1227 3.167329 31.655825 1.173896
2005-03-30 10:05:05 51°35.158 3°0.398 6.1015 3.175437 31.752766 1.207606
2005-03-30 10:06:05 51°35.161 3°0.036 6.1423 3.181965 31.821023 0.803093
2005-03-30 10:07:05 51°35.025 2°59.699 6.1384 3.179017 31.770708 0.634546
2005-03-30 10:08:04 51°34.9 2°59.357 6.1026 3.177227 31.76455 1.106477
2005-03-30 10:09:05 51°34.762 2°59.013 6.1326 3.18881 31.900043 1.005349
2005-03-30 10:10:05 51°34.626 2°58.68 6.1145 3.194075 31.947058 0.93793
2005-03-30 10:11:05 51°34.488 2°58.341 6.0928 3.193338 31.946163 1.005349
2005-03-30 10:12:05 51°34.35 2°58.002 6.086 3.193443 31.974821 1.342443
2005-03-30 10:13:05 51°34.209 2°57.659 6.0801 3.186388 31.900649 1.275024
2005-03-30 10:14:05 51°34.071 2°57.321 6.0997 3.182703 31.863026 1.207606
2005-03-30 10:15:05 51°33.931 2°56.982 6.0801 3.202289 32.065607 1.140187
2005-03-30 10:16:05 51°33.789 2°56.639 6.0981 3.191022 31.957677 1.308734
2005-03-30 10:17:05 51°33.651 2°56.299 6.085 3.199867 32.027405 0.97164
2005-03-30 10:18:05 51°33.509 2°55.959 6.0847 3.201868 32.071487 1.578409
2005-03-30 10:19:04 51°33.37 2°55.619 6.1141 3.204711 32.094091 1.409862
2005-03-30 10:20:05 51°33.23 2°55.274 6.1247 3.216082 32.055616 1.915503
2005-03-30 10:21:04 51°33.091 2°54.936 6.1174 3.212503 32.144742 1.308734
2005-03-30 10:22:04 51°32.952 2°54.594 6.1222 3.208501 32.102021 1.477281
2005-03-30 10:23:04 51°32.812 2°54.25 6.0928 3.206816 32.072001 1.409862
2005-03-30 10:24:05 51°32.67 2°53.905 6.1082 3.208923 32.132681 1.915503
2005-03-30 10:25:04 51°32.531 2°53.566 6.0797 3.212187 32.172958 1.949212
2005-03-30 10:26:04 51°32.391 2°53.226 6.0968 3.211555 32.177348 2.016631
2005-03-30 10:27:05 51°32.247 2°52.878 6.0993 3.211345 32.164426 1.713247
2005-03-30 10:28:04 51°32.109 2°52.543 6.1166 3.214188 32.191897 1.612118
2005-03-30 10:29:04 51°31.969 2°52.2 6.0992 3.219032 32.248088 1.679537
2005-03-30 10:30:04 51°31.825 2°51.86 6.105 3.22356 32.265685 1.477281
2005-03-30 10:31:05 51°31.681 2°51.518 6.0873 3.219874 32.25254 1.848084
2005-03-30 10:32:04 51°31.547 2°51.171 6.0724 3.115315 31.105471 2.016631
2005-03-30 10:33:05 51°31.412 2°50.818 6.109 3.151324 31.507506 2.151469
2005-03-30 10:34:05 51°31.277 2°50.471 6.0675 3.159958 31.593467 2.185178
2005-03-30 10:35:05 51°31.145 2°50.121 6.0665 3.146586 31.461454 2.08405
2005-03-30 10:36:05 51°31.011 2°49.773 6.0933 3.156273 31.57026 2.016631
2005-03-30 10:37:05 51°30.873 2°49.42 6.0996 3.1747 31.760671 1.713247
2005-03-30 10:38:05 51°30.741 2°49.072 6.1137 3.178596 31.798192 1.679537
2005-03-30 10:39:05 51°30.606 2°48.72 6.0945 3.184493 31.866734 1.915503
2005-03-30 10:40:05 51°30.47 2°48.363 6.0988 3.16775 31.677304 1.780665
2005-03-30 10:41:05 51°30.334 2°48.012 6.0912 3.186283 31.886568 1.612118
2005-03-30 10:42:05 51°30.199 2°47.657 6.094 3.199656 32.042903 1.578409
2005-03-30 10:43:05 51°30.063 2°47.302 6.1087 3.199972 32.044784 1.5447
2005-03-30 10:44:05 51°29.928 2°46.951 6.1046 3.173331 31.736678 1.5447
2005-03-30 10:45:05 51°29.791 2°46.599 6.1008 3.16933 31.69559 1.679537
2005-03-30 10:46:05 51°29.657 2°46.248 6.0989 3.173331 31.743102 1.713247
2005-03-30 10:47:05 51°29.561 2°45.876 6.1146 3.175858 31.764659 1.746956
2005-03-30 10:48:04 51°29.599 2°45.505 6.1012 3.211661 32.158166 1.848084
2005-03-30 10:49:05 51°29.771 2°45.308 6.0924 3.194075 31.981826 1.780665
2005-03-30 10:50:04 51°29.97 2°45.291 6.0792 3.202605 32.084537 1.713247
2005-03-30 10:51:05 51°30.136 2°45.467 6.0594 3.21303 32.21328 1.814375
2005-03-30 10:52:04 51°30.29 2°45.664 6.0675 3.194075 32.007752 1.746956
2005-03-30 10:53:05 51°30.427 2°45.894 6.0678 3.208186 32.15868 1.713247
2005-03-30 10:54:05 51°30.55 2°46.142 6.078 3.173226 31.778924 1.848084
2005-03-30 10:55:05 51°30.648 2°46.413 6.08 3.248413 32.601578 1.679537
2005-03-30 10:56:05 51°30.75 2°46.68 6.1001 3.24715 32.580922 1.645828
2005-03-30 10:57:05 51°30.851 2°46.947 6.1079 3.245675 32.565354 1.645828
2005-03-30 10:58:05 51°30.951 2°47.212 6.1145 3.243358 32.519832 1.443571
2005-03-30 10:59:05 51°31.054 2°47.479 6.1505 3.242094 32.500858 1.409862
2005-03-30 11:00:05 51°31.152 2°47.744 6.1168 3.242515 32.476776 1.376153
2005-03-30 11:01:05 51°31.253 2°48.012 6.0857 3.239988 32.479107 1.746956
2005-03-30 11:02:05 51°31.354 2°48.279 6.0926 3.237356 32.467942 2.151469
2005-03-30 11:03:05 51°31.454 2°48.549 6.1078 3.236513 32.438869 2.185178
2005-03-30 11:04:05 51°31.559 2°48.821 6.115 3.234723 32.429657 2.387435
2005-03-30 11:05:05 51°31.66 2°49.088 6.1206 3.232827 32.38647 2.252597
2005-03-30 11:06:05 51°31.762 2°49.358 6.1201 3.2303 32.361694 2.286306
2005-03-30 11:07:05 51°31.864 2°49.629 6.1039 3.229457 32.350707 2.353725
2005-03-30 11:08:05 51°31.967 2°49.9 6.1456 3.226508 32.30328 1.814375
2005-03-30 11:09:05 51°32.069 2°50.17 6.1906 3.225666 32.255612 1.342443
2005-03-30 11:10:05 51°32.171 2°50.438 6.1561 3.224929 32.259664 1.51099
2005-03-30 11:11:05 51°32.273 2°50.709 6.179 3.222612 32.229923 1.342443
2005-03-30 11:12:05 51°32.374 2°50.977 6.1419 3.221243 32.223709 1.51099
2005-03-30 11:13:05 51°32.474 2°51.241 6.1177 3.220401 32.224143 1.679537
2005-03-30 11:14:05 51°32.577 2°51.507 6.103 3.218505 32.225937 1.881794
2005-03-30 11:15:05 51°32.68 2°51.774 6.1099 3.21661 32.207358 2.050341
2005-03-30 11:16:05 51°32.781 2°52.044 6.1217 3.214925 32.193558 2.08405
2005-03-30 11:17:05 51°32.883 2°52.31 6.1321 3.212924 32.14616 1.645828
2005-03-30 11:18:05 51°32.984 2°52.58 6.1073 3.209239 32.134559 1.713247
2005-03-30 11:19:05 51°33.084 2°52.845 6.1139 3.205869 32.097191 1.443571
2005-03-30 11:20:05 51°33.104 2°53.155 6.1458 3.205658 32.069706 1.241315
2005-03-30 11:21:05 51°33.057 2°53.48 6.1072 3.205974 32.073206 1.106477
2005-03-30 11:22:05 51°33.006 2°53.807 6.1293 3.20608 32.111713 1.780665
2005-03-30 11:23:05 51°32.951 2°54.134 6.1244 3.207554 32.093141 1.780665
2005-03-30 11:24:05 51°32.808 2°54.409 6.0627 3.209028 32.133849 3.23017
2005-03-30 11:25:05 51°32.627 2°54.646 6.0643 3.205027 32.126051 4.039195
2005-03-30 11:26:05 51°32.418 2°54.834 6.0693 3.203342 32.101656 4.005486
2005-03-30 11:27:05 51°32.202 2°55.011 6.0707 3.202815 32.092562 3.398717
2005-03-30 11:28:05 51°31.987 2°55.188 6.0942 3.203658 32.094595 2.791947
2005-03-30 11:29:04 51°31.775 2°55.372 6.0823 3.205448 32.106329 2.555982
2005-03-30 11:30:05 51°31.558 2°55.557 6.0955 3.205658 32.107853 2.218888
2005-03-30 11:31:04 51°31.351 2°55.758 6.1093 3.204184 32.086627 2.050341
2005-03-30 11:32:05 51°31.145 2°55.968 6.1012 3.202499 32.063886 2.117759
2005-03-30 11:33:05 51°30.94 2°56.18 6.1342 3.19913 32.020855 2.252597
2005-03-30 11:34:05 51°30.739 2°56.367 6.1577 3.196286 31.968318 2.218888
2005-03-30 11:35:05 51°30.542 2°56.563 6.3342 3.184492 31.820844 1.949212
2005-03-30 11:36:05 51°30.35 2°56.754 6.4081 3.168695 31.386998 0.97164
2005-03-30 11:37:05 51°30.148 2°56.926 6.3671 3.153111 31.214644 1.207606
2005-03-30 11:38:05 51°29.919 2°57.026 6.3607 3.14332 31.208966 2.252597
2005-03-30 11:39:05 51°29.688 2°57.097 6.326 3.137528 31.115653 2.488563
2005-03-30 11:40:05 51°29.445 2°57.123 6.2905 3.132475 31.103135 3.836939
2005-03-30 11:41:05 51°29.2 2°57.069 6.3413 3.12521 31.049874 4.106614
2005-03-30 11:42:05 51°28.96 2°56.971 6.4392 3.12721 30.972929 3.432426
2005-03-30 11:43:05 51°28.719 2°56.877 6.4747 3.121629 30.856111 3.129042
2005-03-30 11:44:05 51°28.48 2°56.782 6.4917 3.118259 30.792315 3.162751
2005-03-30 11:45:05 51°28.236 2°56.691 6.5 3.116048 30.754331 2.791947
2005-03-30 11:46:04 51°27.997 2°56.589 6.5719 3.116785 30.75239 2.994204
2005-03-30 11:47:05 51°27.752 2°56.467 6.6164 3.120469 30.730456 2.6234
2005-03-30 11:48:05 51°27.509 2°56.35 6.6731 3.127628 30.721204 2.353725
2005-03-30 11:49:05 51°27.262 2°56.238 6.5811 3.125312 30.744917 2.522272
2005-03-30 11:50:05 51°27.015 2°56.149 6.4992 3.121627 30.724699 2.387435
2005-03-30 11:51:05 51°26.767 2°56.06 6.4471 3.124682 30.860162 3.567264
2005-03-30 11:52:05 51°26.518 2°55.978 6.3943 3.123419 30.893459 4.241452
2005-03-30 11:53:05 51°26.271 2°55.879 6.3478 3.122788 30.92991 5.016768
2005-03-30 11:54:05 51°26.022 2°55.784 6.318 3.119419 30.939544 5.724665
2005-03-30 11:55:05 51°25.776 2°55.688 6.3219 3.118577 30.941958 6.398853
2005-03-30 11:56:05 51°25.53 2°55.604 6.2967 3.116892 30.930464 7.039332
2005-03-30 11:57:05 51°25.286 2°55.497 6.3288 3.113102 30.881879 7.005623
2005-03-30 11:58:05 51°25.05 2°55.374 6.3291 3.110785 30.846392 7.275298
2005-03-30 11:59:05 51°24.812 2°55.265 6.3367 3.108785 30.827551 7.814648
2005-03-30 12:00:05 51°24.577 2°55.16 6.3519 3.106153 30.788632 8.28658
2005-03-30 12:01:05 51°24.34 2°55.046 6.449 3.102889 30.723545 7.106751
2005-03-30 12:02:05 51°24.1 2°54.934 6.5619 3.098886 30.556381 5.117896
2005-03-30 12:03:05 51°23.86 2°54.819 6.5608 3.093832 30.462495 4.376289
2005-03-30 12:04:05 51°23.619 2°54.7 6.6195 3.086568 30.362223 4.140324
2005-03-30 12:05:05 51°23.376 2°54.586 6.5884 3.085304 30.328838 4.072905
2005-03-30 12:06:05 51°23.131 2°54.47 6.5293 3.082567 30.339127 4.477418
2005-03-30 12:07:05 51°22.888 2°54.361 6.5236 3.08341 30.369494 4.949349
2005-03-30 12:08:05 51°22.648 2°54.248 6.5149 3.086042 30.400432 5.320153
2005-03-30 12:09:05 51°22.414 2°54.137 6.5739 3.085936 30.404596 5.690956
2005-03-30 12:10:05 51°22.183 2°54.026 6.5784 3.077408 30.255846 4.983059
2005-03-30 12:11:05 51°21.951 2°53.915 6.6059 3.071512 30.197043 5.050477
2005-03-30 12:12:05 51°21.717 2°53.804 6.5874 3.073513 30.199222 4.983059
2005-03-30 12:13:04 51°21.485 2°53.691 6.5871 3.074671 30.232122 5.050477
2005-03-30 12:14:05 51°21.245 2°53.58 6.623 3.071933 30.1648 4.949349
2005-03-30 12:15:05 51°21.005 2°53.463 6.6577 3.066143 30.094472 4.814512
2005-03-30 12:16:05 51°20.769 2°53.35 6.6681 3.066669 30.063546 4.544836
2005-03-30 12:17:05 51°20.531 2°53.25 6.689 3.066774 30.072156 4.713383
2005-03-30 12:18:05 51°20.291 2°53.153 6.6783 3.061405 29.982687 4.645965
2005-03-30 12:19:05 51°20.052 2°53.054 6.9113 3.053088 29.893424 4.679674
2005-03-30 12:20:05 51°19.814 2°52.957 6.8805 3.046454 29.668571 3.80323
2005-03-30 12:21:05 51°19.576 2°52.86 6.7365 3.043822 29.666607 4.039195
2005-03-30 12:22:05 51°19.335 2°52.755 6.73 3.04435 29.775256 5.185315
2005-03-30 12:23:05 51°19.1 2°52.661 6.8361 3.034874 29.618551 4.409999
2005-03-30 12:24:05 51°18.865 2°52.562 6.8549 3.032558 29.564322 5.792084
2005-03-30 12:25:05 51°18.627 2°52.507 6.8622 3.030347 29.536133 6.432563
2005-03-30 12:26:05 51°18.387 2°52.474 6.9557 3.031505 29.479402 7.241589
2005-03-30 12:27:05 51°18.148 2°52.436 6.9748 3.026346 29.386333 6.769657
2005-03-30 12:28:05 51°17.906 2°52.401 6.9842 3.025398 29.362439 6.702238
2005-03-30 12:29:05 51°17.665 2°52.388 6.9907 3.028135 29.400463 7.544973
2005-03-30 12:30:05 51°17.427 2°52.396 7.0067 3.037715 29.480741 8.589965
2005-03-30 12:31:05 51°17.187 2°52.396 7.0088 3.045505 29.534507 8.994477
2005-03-30 12:32:04 51°16.957 2°52.451 7.0253 3.042662 29.507677 8.85964
2005-03-30 12:33:05 51°16.736 2°52.575 7.0117 3.032346 29.393553 7.275298
2005-03-30 12:34:05 51°16.523 2°52.746 7.0682 3.03003 29.360822 7.882067
2005-03-30 12:35:05 51°16.314 2°52.914 7.0619 3.037609 29.425351 7.544973
2005-03-30 12:36:05 51°16.105 2°53.078 7.0582 3.047084 29.523872 7.106751
2005-03-30 12:37:05 51°15.892 2°53.237 7.0574 3.047926 29.529266 6.735947
2005-03-30 12:38:05 51°15.685 2°53.395 7.1129 3.031503 29.333386 6.466272
2005-03-30 12:39:05 51°15.476 2°53.553 7.1058 3.023923 29.205135 5.690956
2005-03-30 12:40:05 51°15.275 2°53.707 7.0861 3.010765 29.109684 7.14046
2005-03-30 12:41:05 51°15.082 2°53.897 7.1493 3.015923 29.164053 6.971913
2005-03-30 12:42:05 51°14.906 2°54.125 7.2035 3.025607 29.171712 5.758375
2005-03-30 12:43:05 51°14.735 2°54.353 7.1855 3.022975 29.149382 6.803366
2005-03-30 12:44:05 51°14.592 2°54.572 7.2162 3.025501 29.169878 6.971913
2005-03-30 12:45:05 51°14.473 2°54.818 7.2313 3.013501 29.039278 6.938204
2005-03-30 12:46:05 51°14.37 2°55.044 7.2887 3.001605 28.857062 6.735947
2005-03-30 12:47:05 51°14.297 2°55.204 7.619 3.005394 28.866348 7.342717
2005-03-30 12:48:05 51°14.212 2°55.336 7.7849 2.836465 26.79267 7.207879
2005-03-30 12:49:05 51°14.125 2°55.415 7.8661 2.81184 26.426039 7.74723
2005-03-30 12:50:05 51°14.059 2°55.466 8.0847 2.789531 26.146447 8.185452
2005-03-30 12:51:05 51°14.018 2°55.526 8.452 2.585334 23.836143 6.735947
2005-03-30 12:52:05 51°13.989 2°55.556 8.3203 2.510767 22.946361 5.825794
2005-03-30 12:53:05 51°13.974 2°55.566 8.2418 2.617519 24.137831 6.735947
2005-03-30 12:54:05 51°13.952 2°55.574 8.235 2.63214 24.288336 6.803366
2005-03-30 12:55:05 51°13.887 2°55.606 8.2229 2.67022 24.711647 6.971913
2005-03-30 12:56:05 51°13.792 2°55.674 8.3006 2.627196 24.240493 6.398853
2005-03-30 12:57:05 51°13.714 2°55.781 8.2118 2.624462 24.22592 6.634819
2005-03-30 12:58:05 51°13.669 2°55.88 8.3046 2.632877 24.311876 8.016905
2005-03-30 12:59:05 51°13.632 2°55.974 8.3062 2.562826 23.56879 6.769657
2005-03-30 13:00:05 51°13.607 2°56.055 8.293 2.540004 23.330191 5.387571
2005-03-30 13:01:05 51°13.595 2°56.1 8.1872 2.555148 23.487392 4.848221